sensor_id;sensor_type;location;lat;lon;timestamp;pressure;altitude;pressure_sealevel;temperature;humidity
57102;BME280;42982;54.558;18.508;2023-07-29T08:30:11;100087.66;;;33.63;33.46
57102;BME280;42982;54.558;18.508;2023-07-29T08:31:18;100087.75;;;33.72;33.15
57102;BME280;42982;54.558;18.508;2023-07-29T08:32:23;100087.38;;;33.96;32.61
57102;BME280;42982;54.558;18.508;2023-07-29T08:33:28;100088.88;;;34.22;31.77
57102;BME280;42982;54.558;18.508;2023-07-29T08:34:34;100083.94;;;34.48;31.45
57102;BME280;42982;54.558;18.508;2023-07-29T08:35:35;100081.16;;;34.70;31.17
57102;BME280;42982;54.558;18.508;2023-07-29T08:36:37;100081.13;;;34.92;30.48
57102;BME280;42982;54.558;18.508;2023-07-29T08:37:39;100087.31;;;35.09;29.84
57102;BME280;42982;54.558;18.508;2023-07-29T08:38:43;100080.69;;;35.25;30.36
57102;BME280;42982;54.558;18.508;2023-07-29T08:39:45;100084.91;;;35.39;29.80
57102;BME280;42982;54.558;18.508;2023-07-29T08:41:14;100081.22;;;35.51;29.10
57102;BME280;42982;54.558;18.508;2023-07-29T08:42:19;100076.91;;;35.59;28.75
57102;BME280;42982;54.558;18.508;2023-07-29T08:43:25;100082.53;;;35.68;28.45
57102;BME280;42982;54.558;18.508;2023-07-29T08:44:35;100083.78;;;35.77;28.69
57102;BME280;42982;54.558;18.508;2023-07-29T08:45:39;100084.25;;;35.84;28.50
57102;BME280;42982;54.558;18.508;2023-07-29T08:46:45;100075.25;;;35.89;28.85
57102;BME280;42982;54.558;18.508;2023-07-29T08:47:56;100082.88;;;35.98;28.16
57102;BME280;42982;54.558;18.508;2023-07-29T08:49:01;100074.69;;;36.04;28.73
57102;BME280;42982;54.558;18.508;2023-07-29T08:50:08;100077.94;;;36.11;28.54
57102;BME280;42982;54.558;18.508;2023-07-29T08:51:15;100073.28;;;36.17;28.54
57102;BME280;42982;54.558;18.508;2023-07-29T08:52:21;100069.88;;;36.23;27.17
57102;BME280;42982;54.558;18.508;2023-07-29T08:53:26;100066.13;;;36.26;26.73
57102;BME280;42982;54.558;18.508;2023-07-29T08:54:29;100077.94;;;36.30;26.88
57102;BME280;42982;54.558;18.508;2023-07-29T08:55:31;100077.00;;;36.33;27.04
57102;BME280;42982;54.558;18.508;2023-07-29T08:56:34;100071.41;;;36.33;26.42
57102;BME280;42982;54.558;18.508;2023-07-29T08:57:40;100076.22;;;36.32;26.02
57102;BME280;42982;54.558;18.508;2023-07-29T08:58:45;100083.38;;;36.33;26.62
57102;BME280;42982;54.558;18.508;2023-07-29T08:59:48;100081.66;;;36.36;26.64
57102;BME280;42982;54.558;18.508;2023-07-29T09:00:52;100083.53;;;36.39;26.49
57102;BME280;42982;54.558;18.508;2023-07-29T09:01:54;100078.22;;;36.41;26.81
57102;BME280;42982;54.558;18.508;2023-07-29T09:03:02;100077.59;;;36.46;25.77
57102;BME280;42982;54.558;18.508;2023-07-29T09:04:07;100075.75;;;36.52;26.33
57102;BME280;42982;54.558;18.508;2023-07-29T09:05:11;100076.69;;;36.58;26.42
57102;BME280;42982;54.558;18.508;2023-07-29T09:06:13;100082.72;;;36.66;26.91
57102;BME280;42982;54.558;18.508;2023-07-29T09:07:16;100083.19;;;36.74;27.07
57102;BME280;42982;54.558;18.508;2023-07-29T09:08:18;100083.78;;;36.78;26.44
57102;BME280;42982;54.558;18.508;2023-07-29T09:09:25;100077.84;;;36.85;26.08
57102;BME280;42982;54.558;18.508;2023-07-29T09:10:27;100080.00;;;36.90;25.53
57102;BME280;42982;54.558;18.508;2023-07-29T09:11:30;100083.41;;;36.94;25.04
57102;BME280;42982;54.558;18.508;2023-07-29T09:12:35;100081.28;;;36.98;25.10
57102;BME280;42982;54.558;18.508;2023-07-29T09:13:37;100086.69;;;37.02;25.50
57102;BME280;42982;54.558;18.508;2023-07-29T09:14:38;100085.75;;;37.05;24.90
57102;BME280;42982;54.558;18.508;2023-07-29T09:15:39;100076.09;;;37.06;25.02
57102;BME280;42982;54.558;18.508;2023-07-29T09:16:44;100085.22;;;37.16;24.55
57102;BME280;42982;54.558;18.508;2023-07-29T09:17:48;100074.94;;;37.22;25.31
57102;BME280;42982;54.558;18.508;2023-07-29T09:18:53;100080.50;;;37.31;24.74
57102;BME280;42982;54.558;18.508;2023-07-29T09:19:58;100073.00;;;37.37;24.99
57102;BME280;42982;54.558;18.508;2023-07-29T09:21:00;100077.00;;;37.45;24.42
57102;BME280;42982;54.558;18.508;2023-07-29T09:22:02;100078.22;;;37.53;24.21
57102;BME280;42982;54.558;18.508;2023-07-29T09:23:06;100069.16;;;37.59;24.21
57102;BME280;42982;54.558;18.508;2023-07-29T09:24:14;100076.63;;;37.62;23.85
57102;BME280;42982;54.558;18.508;2023-07-29T09:25:22;100066.94;;;37.63;24.20
57102;BME280;42982;54.558;18.508;2023-07-29T09:26:29;100072.38;;;37.66;24.16
57102;BME280;42982;54.558;18.508;2023-07-29T09:27:30;100069.88;;;37.68;24.29
57102;BME280;42982;54.558;18.508;2023-07-29T09:28:37;100070.63;;;37.69;23.90
57102;BME280;42982;54.558;18.508;2023-07-29T09:29:39;100072.19;;;37.70;24.18
57102;BME280;42982;54.558;18.508;2023-07-29T09:30:43;100072.00;;;37.73;23.94
57102;BME280;42982;54.558;18.508;2023-07-29T09:31:45;100067.19;;;37.74;23.74
57102;BME280;42982;54.558;18.508;2023-07-29T09:32:58;100067.97;;;37.74;24.12
57102;BME280;42982;54.558;18.508;2023-07-29T09:34:18;100070.28;;;37.76;23.76
57102;BME280;42982;54.558;18.508;2023-07-29T09:35:20;100073.06;;;37.76;23.39
57102;BME280;42982;54.558;18.508;2023-07-29T09:36:24;100077.16;;;37.75;23.46
57102;BME280;42982;54.558;18.508;2023-07-29T09:37:26;100075.28;;;37.72;23.01
57102;BME280;42982;54.558;18.508;2023-07-29T09:38:31;100072.19;;;37.70;23.32
57102;BME280;42982;54.558;18.508;2023-07-29T09:39:44;100069.09;;;37.68;23.40
57102;BME280;42982;54.558;18.508;2023-07-29T09:40:48;100076.25;;;37.69;23.34
57102;BME280;42982;54.558;18.508;2023-07-29T09:41:52;100067.53;;;37.67;23.70
57102;BME280;42982;54.558;18.508;2023-07-29T09:42:59;100074.09;;;37.64;23.65
57102;BME280;42982;54.558;18.508;2023-07-29T09:44:04;100066.16;;;37.62;23.15
57102;BME280;42982;54.558;18.508;2023-07-29T09:45:11;100070.88;;;37.56;23.24
57102;BME280;42982;54.558;18.508;2023-07-29T09:46:12;100068.25;;;37.52;23.30
57102;BME280;42982;54.558;18.508;2023-07-29T09:48:27;100064.56;;;37.46;23.16
57102;BME280;42982;54.558;18.508;2023-07-29T09:49:37;100065.16;;;37.41;22.90
57102;BME280;42982;54.558;18.508;2023-07-29T09:50:39;100068.91;;;37.38;22.77
57102;BME280;42982;54.558;18.508;2023-07-29T09:51:42;100066.00;;;37.32;22.77
57102;BME280;42982;54.558;18.508;2023-07-29T09:52:44;100060.56;;;37.29;23.24
57102;BME280;42982;54.558;18.508;2023-07-29T09:53:52;100061.50;;;37.26;23.50
57102;BME280;42982;54.558;18.508;2023-07-29T09:54:56;100047.34;;;37.20;23.76
57102;BME280;42982;54.558;18.508;2023-07-29T09:55:58;100056.44;;;37.15;23.60
57102;BME280;42982;54.558;18.508;2023-07-29T09:56:59;100051.94;;;37.08;23.63
57102;BME280;42982;54.558;18.508;2023-07-29T09:58:01;100054.63;;;37.03;24.07
57102;BME280;42982;54.558;18.508;2023-07-29T09:59:10;100056.97;;;36.95;23.96
57102;BME280;42982;54.558;18.508;2023-07-29T10:00:13;100056.34;;;36.91;24.35
57102;BME280;42982;54.558;18.508;2023-07-29T10:01:15;100056.69;;;36.84;23.71
57102;BME280;42982;54.558;18.508;2023-07-29T10:02:20;100054.81;;;36.81;24.12
57102;BME280;42982;54.558;18.508;2023-07-29T10:03:26;100053.91;;;36.75;23.85
57102;BME280;42982;54.558;18.508;2023-07-29T10:04:29;100055.47;;;36.66;23.49
57102;BME280;42982;54.558;18.508;2023-07-29T10:05:30;100049.94;;;36.57;23.62
57102;BME280;42982;54.558;18.508;2023-07-29T10:06:34;100055.53;;;36.48;23.60
57102;BME280;42982;54.558;18.508;2023-07-29T10:07:39;100053.97;;;36.38;23.25
57102;BME280;42982;54.558;18.508;2023-07-29T10:08:43;100053.69;;;36.27;22.87
57102;BME280;42982;54.558;18.508;2023-07-29T10:09:49;100058.66;;;36.13;22.73
57102;BME280;42982;54.558;18.508;2023-07-29T10:10:58;100041.84;;;35.95;22.71
57102;BME280;42982;54.558;18.508;2023-07-29T10:12:05;100052.25;;;35.76;22.72
57102;BME280;42982;54.558;18.508;2023-07-29T10:13:09;100054.41;;;35.63;23.42
57102;BME280;42982;54.558;18.508;2023-07-29T10:14:11;100061.03;;;35.47;22.93
57102;BME280;42982;54.558;18.508;2023-07-29T10:15:17;100049.47;;;35.26;22.97
57102;BME280;42982;54.558;18.508;2023-07-29T10:16:30;100057.47;;;35.06;23.27
57102;BME280;42982;54.558;18.508;2023-07-29T10:17:37;100053.63;;;34.81;23.10
57102;BME280;42982;54.558;18.508;2023-07-29T10:18:42;100063.13;;;34.62;23.71
57102;BME280;42982;54.558;18.508;2023-07-29T10:19:44;100053.38;;;34.45;24.11
57102;BME280;42982;54.558;18.508;2023-07-29T10:20:52;100057.91;;;34.29;25.04
57102;BME280;42982;54.558;18.508;2023-07-29T10:21:56;100055.94;;;34.17;25.17
57102;BME280;42982;54.558;18.508;2023-07-29T10:23:00;100058.34;;;34.06;25.22
57102;BME280;42982;54.558;18.508;2023-07-29T10:24:06;100055.59;;;33.93;25.11
57102;BME280;42982;54.558;18.508;2023-07-29T10:25:10;100051.59;;;33.81;24.57
57102;BME280;42982;54.558;18.508;2023-07-29T10:26:16;100045.28;;;33.68;24.81
57102;BME280;42982;54.558;18.508;2023-07-29T10:27:27;100053.22;;;33.57;24.85
57102;BME280;42982;54.558;18.508;2023-07-29T10:28:40;100054.78;;;33.45;24.66
57102;BME280;42982;54.558;18.508;2023-07-29T10:29:41;100059.44;;;33.35;25.04
57102;BME280;42982;54.558;18.508;2023-07-29T10:30:47;100058.69;;;33.22;25.07
57102;BME280;42982;54.558;18.508;2023-07-29T10:31:54;100056.34;;;33.08;24.98
57102;BME280;42982;54.558;18.508;2023-07-29T10:33:02;100048.75;;;32.95;24.63
57102;BME280;42982;54.558;18.508;2023-07-29T10:34:09;100047.28;;;32.78;24.67
57102;BME280;42982;54.558;18.508;2023-07-29T10:35:15;100058.28;;;32.69;24.97
57102;BME280;42982;54.558;18.508;2023-07-29T10:36:26;100048.78;;;32.53;26.22
57102;BME280;42982;54.558;18.508;2023-07-29T10:37:31;100054.22;;;32.44;26.60
57102;BME280;42982;54.558;18.508;2023-07-29T10:38:36;100052.94;;;32.33;26.51
57102;BME280;42982;54.558;18.508;2023-07-29T10:39:39;100047.66;;;32.22;26.48
57102;BME280;42982;54.558;18.508;2023-07-29T10:40:47;100045.94;;;32.12;27.33
57102;BME280;42982;54.558;18.508;2023-07-29T10:42:14;100045.13;;;31.98;27.28
57102;BME280;42982;54.558;18.508;2023-07-29T10:43:24;100037.41;;;31.90;27.76
57102;BME280;42982;54.558;18.508;2023-07-29T10:45:41;100040.94;;;31.74;28.23
57102;BME280;42982;54.558;18.508;2023-07-29T10:46:45;100050.25;;;31.67;28.11
57102;BME280;42982;54.558;18.508;2023-07-29T10:47:53;100038.97;;;31.58;28.46
57102;BME280;42982;54.558;18.508;2023-07-29T10:49:01;100038.38;;;31.50;28.82
57102;BME280;42982;54.558;18.508;2023-07-29T10:50:19;100038.53;;;31.43;28.73
57102;BME280;42982;54.558;18.508;2023-07-29T10:51:40;100038.38;;;31.34;28.74
57102;BME280;42982;54.558;18.508;2023-07-29T10:52:42;100038.84;;;31.29;28.82
57102;BME280;42982;54.558;18.508;2023-07-29T10:53:43;100040.22;;;31.21;29.55
57102;BME280;42982;54.558;18.508;2023-07-29T10:54:48;100040.00;;;31.15;29.15
57102;BME280;42982;54.558;18.508;2023-07-29T10:55:51;100042.50;;;31.09;29.26
57102;BME280;42982;54.558;18.508;2023-07-29T10:56:55;100038.66;;;31.03;29.28
57102;BME280;42982;54.558;18.508;2023-07-29T10:58:06;100034.13;;;30.93;28.94
57102;BME280;42982;54.558;18.508;2023-07-29T10:59:31;100038.97;;;30.89;29.27
57102;BME280;42982;54.558;18.508;2023-07-29T11:00:34;100046.25;;;30.83;29.42
57102;BME280;42982;54.558;18.508;2023-07-29T11:01:41;100034.03;;;30.77;29.34
57102;BME280;42982;54.558;18.508;2023-07-29T11:02:58;100038.91;;;30.73;29.13
57102;BME280;42982;54.558;18.508;2023-07-29T11:05:25;100030.91;;;30.58;30.22
57102;BME280;42982;54.558;18.508;2023-07-29T11:06:26;100024.63;;;30.54;29.88
57102;BME280;42982;54.558;18.508;2023-07-29T11:07:28;100027.09;;;30.48;29.89
57102;BME280;42982;54.558;18.508;2023-07-29T11:08:33;100019.28;;;30.43;29.78
57102;BME280;42982;54.558;18.508;2023-07-29T11:11:06;100029.81;;;30.32;29.92
57102;BME280;42982;54.558;18.508;2023-07-29T11:13:41;100033.19;;;30.23;30.35
57102;BME280;42982;54.558;18.508;2023-07-29T11:14:44;100030.84;;;30.18;30.22
57102;BME280;42982;54.558;18.508;2023-07-29T11:15:54;100027.78;;;30.13;29.96
57102;BME280;42982;54.558;18.508;2023-07-29T11:17:02;100022.38;;;30.06;29.69
57102;BME280;42982;54.558;18.508;2023-07-29T11:18:05;100024.44;;;30.01;30.02
57102;BME280;42982;54.558;18.508;2023-07-29T11:19:15;100024.22;;;29.92;30.02
57102;BME280;42982;54.558;18.508;2023-07-29T11:20:27;100018.75;;;29.89;30.73
57102;BME280;42982;54.558;18.508;2023-07-29T11:21:31;100023.53;;;29.85;30.84
57102;BME280;42982;54.558;18.508;2023-07-29T11:22:34;100015.38;;;29.77;30.87
57102;BME280;42982;54.558;18.508;2023-07-29T11:23:36;100015.84;;;29.72;31.25
57102;BME280;42982;54.558;18.508;2023-07-29T11:24:37;100009.59;;;29.68;31.45
57102;BME280;42982;54.558;18.508;2023-07-29T11:25:40;100012.50;;;29.61;31.47
57102;BME280;42982;54.558;18.508;2023-07-29T11:26:48;100010.94;;;29.56;30.69
57102;BME280;42982;54.558;18.508;2023-07-29T11:27:53;100018.97;;;29.51;30.61
57102;BME280;42982;54.558;18.508;2023-07-29T11:28:55;100021.00;;;29.47;30.57
57102;BME280;42982;54.558;18.508;2023-07-29T11:30:05;100010.03;;;29.40;31.12
57102;BME280;42982;54.558;18.508;2023-07-29T11:31:09;100020.41;;;29.36;31.23
57102;BME280;42982;54.558;18.508;2023-07-29T11:32:12;100014.13;;;29.31;31.21
57102;BME280;42982;54.558;18.508;2023-07-29T11:33:19;100013.03;;;29.25;30.90
57102;BME280;42982;54.558;18.508;2023-07-29T11:34:31;100008.75;;;29.21;30.98
57102;BME280;42982;54.558;18.508;2023-07-29T11:35:35;100006.44;;;29.16;31.32
57102;BME280;42982;54.558;18.508;2023-07-29T11:36:37;100010.50;;;29.11;31.52
57102;BME280;42982;54.558;18.508;2023-07-29T11:37:39;99995.56;;;29.05;31.17
57102;BME280;42982;54.558;18.508;2023-07-29T11:38:40;100000.38;;;29.01;30.82
57102;BME280;42982;54.558;18.508;2023-07-29T11:39:42;100008.25;;;28.99;30.46
57102;BME280;42982;54.558;18.508;2023-07-29T11:40:56;100013.06;;;28.95;30.14
57102;BME280;42982;54.558;18.508;2023-07-29T11:41:58;99999.69;;;28.90;30.66
57102;BME280;42982;54.558;18.508;2023-07-29T11:42:59;100007.63;;;28.87;30.93
57102;BME280;42982;54.558;18.508;2023-07-29T11:44:01;100002.91;;;28.84;31.03
57102;BME280;42982;54.558;18.508;2023-07-29T11:45:06;100001.41;;;28.80;31.07
57102;BME280;42982;54.558;18.508;2023-07-29T11:46:09;100000.63;;;28.79;31.40
57102;BME280;42982;54.558;18.508;2023-07-29T11:47:12;99992.78;;;28.74;31.56
57102;BME280;42982;54.558;18.508;2023-07-29T11:48:13;99998.31;;;28.74;31.18
57102;BME280;42982;54.558;18.508;2023-07-29T11:49:15;99998.44;;;28.67;30.92
57102;BME280;42982;54.558;18.508;2023-07-29T11:50:17;100002.44;;;28.62;30.97
57102;BME280;42982;54.558;18.508;2023-07-29T11:51:19;100008.38;;;28.61;31.05
57102;BME280;42982;54.558;18.508;2023-07-29T11:52:21;100015.13;;;28.60;31.22
57102;BME280;42982;54.558;18.508;2023-07-29T11:53:28;100004.91;;;28.57;31.35
57102;BME280;42982;54.558;18.508;2023-07-29T11:54:35;100004.13;;;28.53;31.24
57102;BME280;42982;54.558;18.508;2023-07-29T11:55:38;100000.63;;;28.49;31.08
57102;BME280;42982;54.558;18.508;2023-07-29T11:56:43;100010.53;;;28.46;31.08
57102;BME280;42982;54.558;18.508;2023-07-29T11:57:51;99994.78;;;28.39;30.96
57102;BME280;42982;54.558;18.508;2023-07-29T11:58:57;99993.63;;;28.37;31.00
57102;BME280;42982;54.558;18.508;2023-07-29T11:59:58;99990.91;;;28.33;30.89
57102;BME280;42982;54.558;18.508;2023-07-29T12:01:10;99998.03;;;28.31;31.56
57102;BME280;42982;54.558;18.508;2023-07-29T12:02:14;99992.56;;;28.27;31.61
57102;BME280;42982;54.558;18.508;2023-07-29T12:03:19;99986.69;;;28.25;31.80
57102;BME280;42982;54.558;18.508;2023-07-29T12:04:21;99989.50;;;28.22;31.92
57102;BME280;42982;54.558;18.508;2023-07-29T12:05:24;99989.88;;;28.20;32.03
57102;BME280;42982;54.558;18.508;2023-07-29T12:06:28;99988.34;;;28.19;32.11
57102;BME280;42982;54.558;18.508;2023-07-29T12:07:38;99990.72;;;28.17;32.20
57102;BME280;42982;54.558;18.508;2023-07-29T12:08:44;99989.56;;;28.14;32.08
57102;BME280;42982;54.558;18.508;2023-07-29T12:09:46;99977.75;;;28.10;31.87
57102;BME280;42982;54.558;18.508;2023-07-29T12:10:51;99979.38;;;28.08;31.91
57102;BME280;42982;54.558;18.508;2023-07-29T12:11:59;99978.63;;;28.04;32.37
57102;BME280;42982;54.558;18.508;2023-07-29T12:13:02;99979.03;;;28.02;32.48
57102;BME280;42982;54.558;18.508;2023-07-29T12:14:07;99975.50;;;28.02;32.24
57102;BME280;42982;54.558;18.508;2023-07-29T12:15:12;99975.13;;;28.00;32.10
57102;BME280;42982;54.558;18.508;2023-07-29T12:16:16;99973.19;;;27.97;32.04
57102;BME280;42982;54.558;18.508;2023-07-29T12:17:21;99973.63;;;27.91;32.53
57102;BME280;42982;54.558;18.508;2023-07-29T12:18:32;99972.41;;;27.92;32.79
57102;BME280;42982;54.558;18.508;2023-07-29T12:19:39;99972.41;;;27.92;33.04
57102;BME280;42982;54.558;18.508;2023-07-29T12:20:44;99970.09;;;27.91;32.98
57102;BME280;42982;54.558;18.508;2023-07-29T12:21:48;99964.19;;;27.89;33.21
57102;BME280;42982;54.558;18.508;2023-07-29T12:22:55;99959.84;;;27.88;33.48
57102;BME280;42982;54.558;18.508;2023-07-29T12:23:57;99966.16;;;27.88;33.66
57102;BME280;42982;54.558;18.508;2023-07-29T12:25:04;99963.00;;;27.86;33.36
57102;BME280;42982;54.558;18.508;2023-07-29T12:26:09;99955.16;;;27.85;32.92
57102;BME280;42982;54.558;18.508;2023-07-29T12:27:15;99948.09;;;27.80;32.95
57102;BME280;42982;54.558;18.508;2023-07-29T12:28:22;99947.31;;;27.76;33.07
57102;BME280;42982;54.558;18.508;2023-07-29T12:29:28;99949.72;;;27.78;33.53
57102;BME280;42982;54.558;18.508;2023-07-29T12:30:30;99943.81;;;27.72;33.68
57102;BME280;42982;54.558;18.508;2023-07-29T12:31:37;99943.81;;;27.72;33.66
57102;BME280;42982;54.558;18.508;2023-07-29T12:33:00;99957.63;;;27.72;34.17
57102;BME280;42982;54.558;18.508;2023-07-29T12:34:02;99953.69;;;27.69;33.77
57102;BME280;42982;54.558;18.508;2023-07-29T12:35:09;99948.22;;;27.66;33.66
57102;BME280;42982;54.558;18.508;2023-07-29T12:36:11;99941.13;;;27.65;33.65
57102;BME280;42982;54.558;18.508;2023-07-29T12:37:15;99952.19;;;27.65;34.03
57102;BME280;42982;54.558;18.508;2023-07-29T12:38:26;99953.00;;;27.62;33.97
57102;BME280;42982;54.558;18.508;2023-07-29T12:39:34;99956.94;;;27.61;33.51
57102;BME280;42982;54.558;18.508;2023-07-29T12:40:38;99949.84;;;27.60;33.39
57102;BME280;42982;54.558;18.508;2023-07-29T12:41:45;99946.75;;;27.54;33.41
57102;BME280;42982;54.558;18.508;2023-07-29T12:42:50;99946.34;;;27.56;33.35
57102;BME280;42982;54.558;18.508;2023-07-29T12:43:56;99946.75;;;27.54;33.08
57102;BME280;42982;54.558;18.508;2023-07-29T12:45:02;99956.22;;;27.53;33.06
57102;BME280;42982;54.558;18.508;2023-07-29T12:46:06;99946.34;;;27.52;33.25
57102;BME280;42982;54.558;18.508;2023-07-29T12:47:14;99949.91;;;27.53;33.32
57102;BME280;42982;54.558;18.508;2023-07-29T12:48:18;99936.13;;;27.49;33.42
57102;BME280;42982;54.558;18.508;2023-07-29T12:49:22;99944.84;;;27.47;33.76
57102;BME280;42982;54.558;18.508;2023-07-29T12:50:24;99952.28;;;27.50;33.50
57102;BME280;42982;54.558;18.508;2023-07-29T12:51:31;99942.06;;;27.47;33.76
57102;BME280;42982;54.558;18.508;2023-07-29T12:52:36;99937.78;;;27.43;34.06
57102;BME280;42982;54.558;18.508;2023-07-29T12:53:40;99944.41;;;27.53;34.22
57102;BME280;42982;54.558;18.508;2023-07-29T12:54:49;99946.34;;;27.52;34.17
57102;BME280;42982;54.558;18.508;2023-07-29T12:55:50;99944.41;;;27.53;34.39
57102;BME280;42982;54.558;18.508;2023-07-29T12:56:52;99944.00;;;27.50;34.02
57102;BME280;42982;54.558;18.508;2023-07-29T12:57:54;99942.03;;;27.51;34.10
57102;BME280;42982;54.558;18.508;2023-07-29T12:59:02;99941.66;;;27.49;33.82
57102;BME280;42982;54.558;18.508;2023-07-29T13:00:04;99946.81;;;27.47;33.78
57102;BME280;42982;54.558;18.508;2023-07-29T13:01:08;99940.13;;;27.44;33.77
57102;BME280;42982;54.558;18.508;2023-07-29T13:02:14;99936.63;;;27.40;33.92
57102;BME280;42982;54.558;18.508;2023-07-29T13:03:16;99942.50;;;27.42;34.13
57102;BME280;42982;54.558;18.508;2023-07-29T13:04:19;99939.00;;;27.38;34.01
57102;BME280;42982;54.558;18.508;2023-07-29T13:05:30;99942.97;;;27.37;33.87
57102;BME280;42982;54.558;18.508;2023-07-29T13:06:39;99937.47;;;27.34;34.08
57102;BME280;42982;54.558;18.508;2023-07-29T13:07:45;99933.94;;;27.30;34.06
57102;BME280;42982;54.558;18.508;2023-07-29T13:08:47;99944.19;;;27.29;34.02
57102;BME280;42982;54.558;18.508;2023-07-29T13:09:53;99939.13;;;27.24;34.29
57102;BME280;42982;54.558;18.508;2023-07-29T13:10:55;99943.06;;;27.23;34.34
57102;BME280;42982;54.558;18.508;2023-07-29T13:12:00;99942.28;;;27.22;34.22
57102;BME280;42982;54.558;18.508;2023-07-29T13:13:06;99946.28;;;27.18;34.43
57102;BME280;42982;54.558;18.508;2023-07-29T13:14:07;99941.53;;;27.18;34.67
57102;BME280;42982;54.558;18.508;2023-07-29T13:15:10;99945.47;;;27.17;34.80
57102;BME280;42982;54.558;18.508;2023-07-29T13:16:13;99938.41;;;27.16;34.97
57102;BME280;42982;54.558;18.508;2023-07-29T13:17:15;99947.84;;;27.19;35.38
57102;BME280;42982;54.558;18.508;2023-07-29T13:18:19;99950.59;;;27.19;35.18
57102;BME280;42982;54.558;18.508;2023-07-29T13:19:25;99940.75;;;27.18;35.32
57102;BME280;42982;54.558;18.508;2023-07-29T13:20:30;99943.53;;;27.18;35.27
57102;BME280;42982;54.558;18.508;2023-07-29T13:21:31;99949.81;;;27.18;35.04
57102;BME280;42982;54.558;18.508;2023-07-29T13:22:35;99942.31;;;27.19;35.28
57102;BME280;42982;54.558;18.508;2023-07-29T13:23:47;99946.63;;;27.20;35.55
57102;BME280;42982;54.558;18.508;2023-07-29T13:24:49;99943.88;;;27.20;35.42
57102;BME280;42982;54.558;18.508;2023-07-29T13:25:54;99937.56;;;27.19;36.00
57102;BME280;42982;54.558;18.508;2023-07-29T13:26:56;99936.38;;;27.20;35.93
57102;BME280;42982;54.558;18.508;2023-07-29T13:28:00;99939.13;;;27.20;35.67
57102;BME280;42982;54.558;18.508;2023-07-29T13:29:04;99940.34;;;27.19;36.04
57102;BME280;42982;54.558;18.508;2023-07-29T13:30:10;99935.59;;;27.20;35.83
57102;BME280;42982;54.558;18.508;2023-07-29T13:31:12;99936.03;;;27.18;35.92
57102;BME280;42982;54.558;18.508;2023-07-29T13:32:14;99932.47;;;27.18;36.13
57102;BME280;42982;54.558;18.508;2023-07-29T13:33:20;99933.66;;;27.17;36.12
57102;BME280;42982;54.558;18.508;2023-07-29T13:34:23;99934.84;;;27.16;36.12
57102;BME280;42982;54.558;18.508;2023-07-29T13:35:25;99932.09;;;27.12;36.14
57102;BME280;42982;54.558;18.508;2023-07-29T13:36:27;99928.16;;;27.10;36.30
57102;BME280;42982;54.558;18.508;2023-07-29T13:37:28;99934.06;;;27.12;36.79
57102;BME280;42982;54.558;18.508;2023-07-29T13:38:32;99934.88;;;27.09;36.51
57102;BME280;42982;54.558;18.508;2023-07-29T13:39:38;99927.41;;;27.06;36.63
57102;BME280;42982;54.558;18.508;2023-07-29T13:40:40;99935.28;;;27.07;36.90
57102;BME280;42982;54.558;18.508;2023-07-29T13:41:42;99938.47;;;27.06;37.07
57102;BME280;42982;54.558;18.508;2023-07-29T13:42:44;99930.59;;;27.00;37.38
57102;BME280;42982;54.558;18.508;2023-07-29T13:43:48;99934.13;;;27.01;37.35
57102;BME280;42982;54.558;18.508;2023-07-29T13:44:50;99933.78;;;26.99;37.27
57102;BME280;42982;54.558;18.508;2023-07-29T13:45:55;99932.97;;;26.98;36.98
57102;BME280;42982;54.558;18.508;2023-07-29T13:46:58;99935.38;;;26.96;37.35
57102;BME280;42982;54.558;18.508;2023-07-29T13:48:00;99933.78;;;26.95;37.41
57102;BME280;42982;54.558;18.508;2023-07-29T13:49:03;99931.81;;;26.92;37.54
57102;BME280;42982;54.558;18.508;2023-07-29T13:50:08;99931.06;;;26.92;37.50
57102;BME280;42982;54.558;18.508;2023-07-29T13:51:13;99930.66;;;26.93;37.77
57102;BME280;42982;54.558;18.508;2023-07-29T13:52:17;99929.06;;;26.92;37.54
57102;BME280;42982;54.558;18.508;2023-07-29T13:53:23;99929.06;;;26.92;37.71
57102;BME280;42982;54.558;18.508;2023-07-29T13:54:25;99929.06;;;26.92;37.96
57102;BME280;42982;54.558;18.508;2023-07-29T13:55:32;99925.16;;;26.93;38.18
57102;BME280;42982;54.558;18.508;2023-07-29T13:56:36;99919.63;;;26.93;38.29
57102;BME280;42982;54.558;18.508;2023-07-29T13:57:39;99919.63;;;26.93;38.21
57102;BME280;42982;54.558;18.508;2023-07-29T13:58:40;99919.63;;;26.93;38.47
57102;BME280;42982;54.558;18.508;2023-07-29T13:59:44;99914.47;;;26.95;38.86
57102;BME280;42982;54.558;18.508;2023-07-29T14:00:48;99915.66;;;26.94;38.98
57102;BME280;42982;54.558;18.508;2023-07-29T14:01:51;99914.09;;;26.93;39.19
57102;BME280;42982;54.558;18.508;2023-07-29T14:02:53;99916.44;;;26.95;39.18
57102;BME280;42982;54.558;18.508;2023-07-29T14:03:57;99915.28;;;26.92;39.20
57102;BME280;42982;54.558;18.508;2023-07-29T14:05:00;99928.28;;;26.92;39.67
57102;BME280;42982;54.558;18.508;2023-07-29T14:06:02;99916.47;;;26.91;39.99
57102;BME280;42982;54.558;18.508;2023-07-29T14:07:06;99914.53;;;26.88;39.79
57102;BME280;42982;54.558;18.508;2023-07-29T14:08:08;99914.16;;;26.86;40.24
57102;BME280;42982;54.558;18.508;2023-07-29T14:09:12;99915.34;;;26.85;40.06
57102;BME280;42982;54.558;18.508;2023-07-29T14:10:17;99920.50;;;26.83;40.45
57102;BME280;42982;54.558;18.508;2023-07-29T14:11:21;99913.38;;;26.82;40.64
57102;BME280;42982;54.558;18.508;2023-07-29T14:12:23;99910.28;;;26.80;40.56
57102;BME280;42982;54.558;18.508;2023-07-29T14:13:29;99910.66;;;26.78;40.99
57102;BME280;42982;54.558;18.508;2023-07-29T14:14:31;99909.88;;;26.78;40.95